Airport View

Enter AWOS ICAO identifier for current METAR.

ex. KFNL

KAKO 120453Z AUTO 29011KT 10SM CLR 02/M07 A2994 RMK AO2 SLP140 T00221072

12 Dec 2019 05:33

Frequency: 135.475

Phone: 970-345-2320

Other Area AWOS: K2V6 - KSTK - KFMM - K2V5

TAF KSNY 112326Z 1200/1224 21010KT P6SM SKC FM120200 24015KT P6SM BKN200 FM120600 30015KT P6SM SKC